MFI weather

Marshfield Municipal Airport
Marshfield, Wisconsin, United States

Public forecast

Using degrees Fahrenheit for public forecast. Weather courtesy of forecast.io.

Current aviation weather report (METAR) for Marshfield Municipal Airport

Retrieved 2019/11/12 13:54 UTC (1 hour ago):

KMFI 121354Z AUTO 31007KT 10SM CLR M16/M19 A3043 RMK AO2 SLP338 T11561189 FZRANO

Closest aviation forecast (TAF) to Marshfield Municipal Airport

Closest forecast is Central Wisconsin Airport, 23.8 nm (44.2 km) ENE. Retrieved 2019/11/12 12:27 UTC (3 hours ago):

TAF KCWA 121125Z 1212/1312 30008KT P6SM SKC FM122100 25007KT P6SM BKN250 FM130800 18009G17KT P6SM BKN090 FM131100 18010G18KT P6SM -SN OVC050